createdAt,value
2022-09-07T00:01:02.843Z,11.40
2022-09-07T00:03:30.824Z,12.75
2022-09-07T00:05:58.562Z,13.02
2022-09-07T00:08:27.545Z,13.63
2022-09-07T00:11:04.561Z,13.23
2022-09-07T00:13:35.065Z,13.90
2022-09-07T00:16:08.148Z,14.63
2022-09-07T00:18:35.564Z,14.55
2022-09-07T00:21:08.533Z,12.63
2022-09-07T00:23:38.459Z,11.98
2022-09-07T00:26:09.562Z,12.90
2022-09-07T00:28:37.653Z,11.18
2022-09-07T00:31:09.583Z,10.93
2022-09-07T00:33:37.232Z,10.77
2022-09-07T00:36:05.347Z,10.60
2022-09-07T00:38:32.733Z,11.52
2022-09-07T00:40:59.974Z,12.30
2022-09-07T00:43:44.464Z,14.40
2022-09-07T00:46:23.869Z,13.63
2022-09-07T00:49:08.312Z,11.82
2022-09-07T00:51:43.843Z,12.32
2022-09-07T00:54:17.832Z,12.50
2022-09-07T00:56:47.294Z,12.13
2022-09-07T00:59:20.259Z,12.25
2022-09-07T01:01:47.861Z,12.18
2022-09-07T01:04:16.443Z,11.73
2022-09-07T01:06:46.645Z,11.50
2022-09-07T01:09:17.282Z,12.23
2022-09-07T01:11:51.101Z,12.80
2022-09-07T01:14:22.963Z,13.43
2022-09-07T01:17:09.057Z,14.30
2022-09-07T01:19:42.991Z,13.68
2022-09-07T01:22:48.897Z,13.50
2022-09-07T01:25:55.738Z,12.70
2022-09-07T01:28:27.482Z,11.23
2022-09-07T01:30:58.000Z,13.05
2022-09-07T01:33:28.543Z,13.68
2022-09-07T01:36:30.703Z,12.63
2022-09-07T01:39:03.907Z,10.30
2022-09-07T01:41:36.100Z,9.70
2022-09-07T01:44:15.423Z,9.10
2022-09-07T01:46:50.588Z,9.52
2022-09-07T01:49:29.784Z,11.02
2022-09-07T01:52:03.908Z,10.35
2022-09-07T01:55:12.374Z,11.45
2022-09-07T01:57:56.618Z,12.88
2022-09-07T02:00:25.913Z,12.45
2022-09-07T02:03:03.654Z,11.98
2022-09-07T02:05:37.213Z,11.57
2022-09-07T02:08:27.974Z,13.48
2022-09-07T02:11:02.498Z,11.77
2022-09-07T02:13:38.733Z,11.45
2022-09-07T02:16:13.313Z,12.70
2022-09-07T02:18:50.194Z,11.75
2022-09-07T02:21:22.627Z,16.48
2022-09-07T02:24:03.452Z,13.55
2022-09-07T02:26:31.207Z,14.27
2022-09-07T02:28:58.535Z,16.05
2022-09-07T02:31:26.390Z,15.55
2022-09-07T02:33:54.006Z,15.30
2022-09-07T02:36:26.859Z,15.20
2022-09-07T02:38:54.412Z,15.05
2022-09-07T02:41:32.328Z,15.02
2022-09-07T02:44:01.307Z,14.30
2022-09-07T02:47:10.011Z,16.00
2022-09-07T02:50:15.347Z,14.52
2022-09-07T02:52:54.818Z,13.55
2022-09-07T02:55:31.529Z,14.55
2022-09-07T02:58:07.747Z,14.00
2022-09-07T03:00:45.263Z,11.90
2022-09-07T03:03:20.092Z,12.20
2022-09-07T03:06:01.423Z,11.48
2022-09-07T03:08:47.219Z,12.88
2022-09-07T03:11:15.423Z,10.25
2022-09-07T03:13:42.897Z,11.85
2022-09-07T03:16:16.640Z,10.82
2022-09-07T03:18:44.525Z,10.48
2022-09-07T03:21:11.897Z,10.25
2022-09-07T03:23:39.410Z,10.27
2022-09-07T03:26:07.052Z,10.13
2022-09-07T03:28:34.305Z,9.57
2022-09-07T03:31:02.429Z,8.32
2022-09-07T03:33:30.032Z,8.27
2022-09-07T03:35:59.976Z,8.57
2022-09-07T03:38:27.585Z,9.90
2022-09-07T03:41:01.663Z,9.73
2022-09-07T03:43:32.412Z,11.38
2022-09-07T03:46:02.070Z,9.98
2022-09-07T03:48:34.346Z,10.63
2022-09-07T03:51:07.542Z,12.93
2022-09-07T03:53:38.087Z,14.55
2022-09-07T03:56:12.682Z,15.02
2022-09-07T03:58:40.543Z,17.63
2022-09-07T04:01:12.688Z,15.88
2022-09-07T04:03:40.149Z,15.77
2022-09-07T04:06:07.902Z,15.75
2022-09-07T04:08:37.268Z,17.90
2022-09-07T04:11:09.967Z,20.63
2022-09-07T04:13:37.827Z,36.55
2022-09-07T04:16:23.573Z,41.47
2022-09-07T04:21:19.262Z,94.95
2022-09-07T04:23:46.952Z,59.00
2022-09-07T04:26:23.602Z,37.78
2022-09-07T04:28:51.332Z,37.25
2022-09-07T04:31:20.858Z,35.97
2022-09-07T04:33:52.013Z,30.25
2022-09-07T04:36:23.290Z,22.70
2022-09-07T04:39:01.805Z,24.38
2022-09-07T04:41:31.292Z,20.75
2022-09-07T04:44:01.223Z,21.17
2022-09-07T04:46:37.962Z,21.30
2022-09-07T04:49:11.896Z,21.63
2022-09-07T04:51:40.413Z,23.25
2022-09-07T04:54:08.330Z,23.60
2022-09-07T04:56:35.812Z,23.95
2022-09-07T04:59:03.527Z,23.40
2022-09-07T05:01:33.288Z,26.08
2022-09-07T05:04:01.860Z,21.80
2022-09-07T05:06:32.262Z,20.90
2022-09-07T05:09:00.162Z,18.85
2022-09-07T05:11:29.440Z,18.05
2022-09-07T05:13:59.576Z,16.50
2022-09-07T05:16:28.291Z,15.43
2022-09-07T05:19:02.096Z,14.88
2022-09-07T05:21:32.213Z,15.23
2022-09-07T05:24:00.833Z,15.23
2022-09-07T05:26:30.193Z,14.95
2022-09-07T05:31:48.371Z,14.40
2022-09-07T05:34:31.579Z,13.50
2022-09-07T05:36:59.852Z,13.45
2022-09-07T05:39:27.921Z,15.13
2022-09-07T05:41:55.258Z,15.88
2022-09-07T05:47:10.753Z,16.92
2022-09-07T05:49:38.488Z,17.25
2022-09-07T05:52:05.989Z,18.90
2022-09-07T05:54:33.342Z,18.67
2022-09-07T05:57:03.184Z,18.35
2022-09-07T05:59:30.714Z,16.67
2022-09-07T06:01:58.093Z,17.33
2022-09-07T06:04:25.934Z,17.83
2022-09-07T06:07:20.151Z,18.23
2022-09-07T06:12:28.907Z,16.98
2022-09-07T06:14:56.403Z,21.42
2022-09-07T06:17:23.722Z,19.88
2022-09-07T06:19:50.963Z,18.85
2022-09-07T06:22:21.263Z,20.38
2022-09-07T06:24:48.532Z,19.75
2022-09-07T06:27:15.748Z,21.58
2022-09-07T06:29:43.327Z,21.48
2022-09-07T06:34:58.105Z,22.45
2022-09-07T06:37:25.283Z,22.75
2022-09-07T06:39:52.566Z,22.35
2022-09-07T06:42:20.020Z,20.80
2022-09-07T06:44:52.583Z,21.38
2022-09-07T06:47:19.978Z,21.42
2022-09-07T06:49:47.532Z,21.33
2022-09-07T06:52:14.778Z,20.15
2022-09-07T06:57:27.258Z,21.08
2022-09-07T06:59:54.578Z,21.20
2022-09-07T07:02:21.904Z,19.27
2022-09-07T07:04:50.173Z,18.83
2022-09-07T07:07:17.434Z,17.45
2022-09-07T07:09:44.677Z,15.68
2022-09-07T07:12:12.138Z,13.38
2022-09-07T07:14:44.767Z,14.38
2022-09-07T07:17:13.687Z,13.90
2022-09-07T07:19:41.007Z,14.18
2022-09-07T07:22:23.926Z,14.23
2022-09-07T07:24:56.066Z,14.45
2022-09-07T07:27:23.384Z,14.43
2022-09-07T07:29:50.797Z,13.13
2022-09-07T07:32:18.811Z,12.10
2022-09-07T07:34:46.340Z,12.50
2022-09-07T07:37:13.452Z,11.38
2022-09-07T07:42:29.089Z,10.68
2022-09-07T07:47:44.302Z,10.52
2022-09-07T07:55:46.922Z,13.40
2022-09-07T07:58:14.156Z,11.35
2022-09-07T08:00:54.368Z,10.25
2022-09-07T08:03:24.085Z,9.75
2022-09-07T08:05:51.719Z,9.80
2022-09-07T08:08:19.602Z,10.73
2022-09-07T08:10:48.077Z,10.02
2022-09-07T08:13:16.595Z,8.88
2022-09-07T08:15:47.086Z,8.90
2022-09-07T08:18:16.585Z,7.28
2022-09-07T08:20:44.199Z,7.45
2022-09-07T08:23:12.039Z,6.80
2022-09-07T08:25:48.726Z,6.43
2022-09-07T08:28:15.956Z,6.75
2022-09-07T08:30:43.923Z,7.03
2022-09-07T08:33:11.147Z,7.65
2022-09-07T08:35:38.370Z,6.63
2022-09-07T08:38:05.868Z,7.50
2022-09-07T08:40:37.310Z,6.07
2022-09-07T08:43:07.348Z,6.47
2022-09-07T08:45:43.762Z,6.22
2022-09-07T08:48:15.020Z,4.40
2022-09-07T08:51:01.098Z,4.65
2022-09-07T08:56:02.407Z,3.55
2022-09-07T08:58:53.381Z,2.67
2022-09-07T09:01:31.475Z,3.28
2022-09-07T09:04:16.032Z,3.50
2022-09-07T09:07:16.714Z,3.97
2022-09-07T09:10:07.182Z,4.30
2022-09-07T09:13:22.763Z,3.42
2022-09-07T09:16:21.898Z,2.83
2022-09-07T09:19:06.442Z,3.42
2022-09-07T09:21:35.785Z,3.10
2022-09-07T09:24:15.892Z,3.65
2022-09-07T09:26:48.523Z,3.83
2022-09-07T09:29:19.862Z,4.03
2022-09-07T09:31:47.555Z,3.13
2022-09-07T09:34:23.743Z,3.13
2022-09-07T09:36:56.715Z,3.22
2022-09-07T09:39:35.592Z,2.78
2022-09-07T09:42:12.148Z,2.78
2022-09-07T09:44:40.081Z,3.33
2022-09-07T09:47:37.466Z,3.65
2022-09-07T09:53:07.349Z,3.35
2022-09-07T09:55:38.188Z,2.92
2022-09-07T10:06:21.825Z,2.78
2022-09-07T10:08:53.372Z,2.25
2022-09-07T10:12:07.349Z,1.95
2022-09-07T10:14:46.900Z,2.30
2022-09-07T10:17:25.302Z,2.50
2022-09-07T10:19:52.814Z,2.50
2022-09-07T10:22:35.933Z,2.90
2022-09-07T10:25:24.994Z,3.05
2022-09-07T10:28:10.229Z,2.45
2022-09-07T10:31:14.548Z,2.35
2022-09-07T10:34:26.300Z,2.20
2022-09-07T10:36:57.212Z,2.97
2022-09-07T10:39:42.199Z,2.85
2022-09-07T10:42:10.018Z,2.78
2022-09-07T10:44:58.763Z,2.70
2022-09-07T10:47:28.875Z,2.70
2022-09-07T10:53:39.493Z,3.65
2022-09-07T10:56:15.241Z,2.05
2022-09-07T10:59:06.094Z,2.30
2022-09-07T11:01:54.232Z,2.00
2022-09-07T11:04:38.380Z,2.00
2022-09-07T11:07:15.724Z,2.53
2022-09-07T11:09:57.998Z,1.35
2022-09-07T11:12:34.882Z,2.00
2022-09-07T11:15:21.608Z,1.90
2022-09-07T11:17:54.602Z,1.85
2022-09-07T11:20:24.573Z,2.38
2022-09-07T11:23:11.961Z,1.65
2022-09-07T11:25:53.513Z,1.92
2022-09-07T11:28:26.482Z,1.88
2022-09-07T11:31:00.634Z,1.98
2022-09-07T11:34:23.740Z,2.10
2022-09-07T11:36:44.435Z,1.73
2022-09-07T11:39:19.006Z,1.65
2022-09-07T11:42:42.691Z,2.00
2022-09-07T11:45:17.514Z,1.85
2022-09-07T11:48:00.157Z,1.77
2022-09-07T11:50:33.021Z,1.90
2022-09-07T11:53:14.543Z,1.70
2022-09-07T11:55:45.925Z,1.90
2022-09-07T11:58:19.777Z,6.03
2022-09-07T12:01:06.778Z,8.23
2022-09-07T12:04:19.176Z,5.07
2022-09-07T12:07:07.962Z,4.85
2022-09-07T12:09:52.423Z,28.33
2022-09-07T12:12:39.808Z,4.00
2022-09-07T12:15:32.212Z,13.45
2022-09-07T12:17:59.442Z,127.72
2022-09-07T12:20:39.523Z,5.03
2022-09-07T12:23:28.217Z,6.72
2022-09-07T12:26:35.900Z,2.58
2022-09-07T12:29:17.858Z,3.10
2022-09-07T12:32:07.984Z,4.50
2022-09-07T12:35:08.007Z,2.78
2022-09-07T12:37:40.365Z,2.38
2022-09-07T12:40:29.093Z,2.17
2022-09-07T12:43:14.425Z,2.30
2022-09-07T12:45:51.062Z,2.75
2022-09-07T12:48:18.608Z,2.60
2022-09-07T12:51:00.515Z,2.20
2022-09-07T12:54:11.172Z,2.17
2022-09-07T13:00:07.150Z,2.33
2022-09-07T13:06:16.619Z,1.90
2022-09-07T13:09:21.235Z,2.60
2022-09-07T13:11:48.643Z,2.25
2022-09-07T13:14:16.720Z,2.30
2022-09-07T13:19:46.093Z,2.33
2022-09-07T13:22:31.453Z,2.67
2022-09-07T13:25:05.363Z,2.15
2022-09-07T13:27:51.257Z,2.33
2022-09-07T13:31:00.785Z,2.30
2022-09-07T13:33:28.082Z,2.20
2022-09-07T13:36:00.994Z,2.45
2022-09-07T13:38:30.450Z,2.50
2022-09-07T13:41:06.403Z,2.47
2022-09-07T13:43:35.052Z,1.98
2022-09-07T13:46:08.341Z,2.45
2022-09-07T13:48:38.664Z,2.40
2022-09-07T13:51:14.252Z,3.42
2022-09-07T13:53:56.813Z,2.88
2022-09-07T13:56:30.146Z,2.60
2022-09-07T13:58:57.617Z,3.30
2022-09-07T14:01:27.141Z,3.40
2022-09-07T14:04:00.084Z,3.70
2022-09-07T14:06:31.363Z,4.93
2022-09-07T14:09:14.025Z,5.68
2022-09-07T14:11:49.817Z,4.45
2022-09-07T14:14:26.452Z,4.80
2022-09-07T14:17:00.397Z,3.72
2022-09-07T14:19:43.613Z,5.63
2022-09-07T14:22:20.867Z,4.88
2022-09-07T14:25:08.481Z,3.53
2022-09-07T14:27:37.403Z,3.13
2022-09-07T14:30:28.343Z,3.40
2022-09-07T14:33:00.766Z,3.97
2022-09-07T14:35:33.700Z,3.22
2022-09-07T14:41:20.884Z,3.00
2022-09-07T14:43:54.129Z,3.10
2022-09-07T14:46:36.146Z,3.05
2022-09-07T14:49:15.288Z,2.60
2022-09-07T14:51:45.802Z,2.83
2022-09-07T14:54:20.922Z,2.85
2022-09-07T14:57:01.294Z,4.03
2022-09-07T14:59:42.974Z,5.72
2022-09-07T15:02:19.437Z,5.70
2022-09-07T15:04:49.516Z,4.28
2022-09-07T15:07:30.787Z,4.20
2022-09-07T15:10:32.973Z,5.00
2022-09-07T15:13:01.966Z,5.40
2022-09-07T15:15:41.930Z,3.40
2022-09-07T15:18:40.487Z,3.35
2022-09-07T15:21:10.815Z,3.45
2022-09-07T15:23:38.415Z,4.40
2022-09-07T15:26:06.154Z,3.50
2022-09-07T15:34:16.030Z,4.38
2022-09-07T15:36:52.457Z,5.03
2022-09-07T15:39:22.561Z,4.15
2022-09-07T15:41:51.638Z,3.72
2022-09-07T15:44:24.324Z,3.13
2022-09-07T15:49:50.005Z,3.20
2022-09-07T15:52:18.033Z,3.90
2022-09-07T15:54:47.543Z,5.65
2022-09-07T16:00:03.533Z,4.40
2022-09-07T16:05:31.229Z,3.20
2022-09-07T16:10:54.260Z,3.13
2022-09-07T16:13:24.430Z,3.22
2022-09-07T16:15:52.143Z,6.72
2022-09-07T16:18:19.939Z,15.23
2022-09-07T16:20:47.933Z,7.82
2022-09-07T16:23:19.791Z,6.30
2022-09-07T16:25:58.952Z,4.03
2022-09-07T16:28:27.930Z,4.00
2022-09-07T16:30:56.314Z,4.07
2022-09-07T16:33:32.792Z,6.82
2022-09-07T16:36:07.157Z,8.85
2022-09-07T16:38:50.132Z,5.03
2022-09-07T16:41:20.803Z,4.53
2022-09-07T16:43:49.618Z,4.32
2022-09-07T16:46:19.907Z,5.63
2022-09-07T16:48:48.012Z,5.30
2022-09-07T16:51:17.552Z,4.90
2022-09-07T16:53:46.022Z,4.93
2022-09-07T16:56:16.966Z,5.18
2022-09-07T16:58:47.601Z,5.70
2022-09-07T17:01:17.926Z,6.15
2022-09-07T17:03:45.555Z,11.23
2022-09-07T17:06:14.602Z,9.30
2022-09-07T17:08:42.710Z,7.80
2022-09-07T17:11:12.818Z,7.78
2022-09-07T17:13:41.573Z,9.75
2022-09-07T17:16:23.924Z,10.52
2022-09-07T17:21:40.405Z,38.60
2022-09-07T17:24:09.863Z,30.85
2022-09-07T17:26:37.432Z,25.10
2022-09-07T17:29:04.974Z,24.15
2022-09-07T17:34:21.242Z,19.83
2022-09-07T17:36:49.052Z,17.33
2022-09-07T17:39:18.139Z,15.70
2022-09-07T17:41:48.980Z,16.20
2022-09-07T17:44:17.184Z,15.80
2022-09-07T17:46:44.453Z,17.02
2022-09-07T17:49:14.226Z,18.35
2022-09-07T17:51:41.669Z,21.42
2022-09-07T17:54:13.924Z,26.70
2022-09-07T17:56:42.147Z,26.55
2022-09-07T18:01:57.373Z,18.65
2022-09-07T18:04:24.929Z,19.38
2022-09-07T18:06:54.364Z,17.35
2022-09-07T18:09:22.224Z,18.88
2022-09-07T18:11:50.331Z,21.25
2022-09-07T18:14:19.140Z,21.52
2022-09-07T18:16:49.990Z,22.90
2022-09-07T18:19:18.964Z,19.05
2022-09-07T18:21:48.012Z,16.88
2022-09-07T18:24:19.932Z,18.63
2022-09-07T18:26:50.646Z,18.08
2022-09-07T18:29:31.310Z,18.92
2022-09-07T18:32:08.524Z,19.75
2022-09-07T18:34:40.571Z,17.60
2022-09-07T18:37:09.283Z,18.52
2022-09-07T18:39:36.885Z,18.63
2022-09-07T18:42:04.692Z,17.58
2022-09-07T18:47:27.910Z,18.92
2022-09-07T18:49:59.243Z,19.08
2022-09-07T18:55:15.884Z,21.73
2022-09-07T18:57:43.381Z,20.80
2022-09-07T19:00:12.098Z,21.50
2022-09-07T19:02:39.434Z,19.88
2022-09-07T19:07:54.971Z,21.55
2022-09-07T19:10:23.322Z,22.73
2022-09-07T19:12:50.561Z,25.55
2022-09-07T19:15:17.749Z,25.73
2022-09-07T19:17:45.365Z,27.27
2022-09-07T19:20:12.562Z,28.10
2022-09-07T19:22:39.963Z,28.70
2022-09-07T19:25:07.652Z,27.45
2022-09-07T19:27:35.052Z,28.42
2022-09-07T19:30:02.254Z,27.63
2022-09-07T19:32:30.023Z,29.55
2022-09-07T19:34:57.205Z,27.98
2022-09-07T19:37:25.871Z,27.17
2022-09-07T19:39:57.022Z,27.83
2022-09-07T19:42:25.654Z,25.17
2022-09-07T19:44:54.326Z,27.00
2022-09-07T19:47:22.386Z,25.90
2022-09-07T19:49:49.603Z,31.77
2022-09-07T19:52:16.854Z,44.03
2022-09-07T19:54:44.539Z,38.33
2022-09-07T19:57:11.924Z,34.15
2022-09-07T19:59:39.789Z,32.13
2022-09-07T20:02:09.759Z,31.13
2022-09-07T20:04:37.048Z,29.50
2022-09-07T20:07:04.409Z,26.92
2022-09-07T20:09:32.043Z,28.83
2022-09-07T20:12:01.955Z,29.63
2022-09-07T20:14:29.588Z,31.85
2022-09-07T20:16:57.644Z,30.70
2022-09-07T20:19:24.991Z,27.77
2022-09-07T20:21:55.878Z,34.38
2022-09-07T20:24:23.853Z,27.35
2022-09-07T20:26:51.077Z,32.10
2022-09-07T20:29:33.807Z,32.38
2022-09-07T20:32:01.937Z,28.65
2022-09-07T20:34:29.447Z,40.70
2022-09-07T20:36:57.405Z,29.38
2022-09-07T20:39:25.813Z,27.98
2022-09-07T20:41:53.227Z,21.70
2022-09-07T20:44:20.496Z,20.48
2022-09-07T20:46:48.237Z,19.70
2022-09-07T20:49:16.042Z,19.27
2022-09-07T20:51:43.340Z,21.10
2022-09-07T20:54:10.819Z,21.48
2022-09-07T20:56:38.237Z,28.40
2022-09-07T20:59:05.545Z,42.22
2022-09-07T21:01:34.589Z,35.15
2022-09-07T21:04:02.054Z,30.50
2022-09-07T21:06:31.349Z,32.92
2022-09-07T21:08:59.140Z,31.27
2022-09-07T21:11:34.580Z,42.85
2022-09-07T21:14:12.134Z,36.80
2022-09-07T21:16:39.977Z,32.60
2022-09-07T21:19:09.269Z,32.15
2022-09-07T21:21:45.504Z,38.90
2022-09-07T21:24:19.164Z,36.33
2022-09-07T21:26:47.492Z,28.45
2022-09-07T21:29:26.017Z,21.40
2022-09-07T21:31:53.845Z,17.77
2022-09-07T21:34:22.375Z,16.98
2022-09-07T21:36:52.376Z,17.25
2022-09-07T21:39:20.968Z,20.05
2022-09-07T21:41:48.549Z,16.85
2022-09-07T21:44:18.754Z,17.38
2022-09-07T21:46:46.100Z,19.40
2022-09-07T21:49:13.934Z,16.58
2022-09-07T21:51:41.163Z,18.10
2022-09-07T21:54:08.897Z,17.45
2022-09-07T21:56:36.769Z,16.55
2022-09-07T21:59:04.915Z,17.00
2022-09-07T22:01:33.595Z,17.90
2022-09-07T22:04:05.262Z,18.33
2022-09-07T22:06:33.778Z,17.67
2022-09-07T22:09:01.740Z,22.92
2022-09-07T22:11:29.938Z,20.27
2022-09-07T22:13:59.515Z,20.70
2022-09-07T22:16:27.139Z,19.27
2022-09-07T22:18:54.543Z,16.58
2022-09-07T22:21:26.978Z,15.13
2022-09-07T22:24:00.844Z,14.68
2022-09-07T22:26:30.536Z,16.33
2022-09-07T22:29:05.190Z,19.30
2022-09-07T22:31:37.456Z,19.42
2022-09-07T22:34:08.511Z,20.02
2022-09-07T22:36:39.067Z,23.15
2022-09-07T22:39:12.468Z,26.05
2022-09-07T22:41:40.741Z,26.05
2022-09-07T22:44:11.588Z,27.52
2022-09-07T22:46:40.559Z,27.00
2022-09-07T22:49:08.124Z,25.88
2022-09-07T22:51:35.693Z,25.88
2022-09-07T22:54:02.953Z,26.63
2022-09-07T22:56:32.603Z,25.92
2022-09-07T22:59:03.535Z,25.50
2022-09-07T23:01:32.242Z,25.85
2022-09-07T23:04:00.691Z,25.63
2022-09-07T23:06:34.779Z,26.98
2022-09-07T23:09:06.302Z,27.27
2022-09-07T23:11:34.046Z,41.10
2022-09-07T23:14:06.743Z,27.55
2022-09-07T23:16:34.682Z,38.03
2022-09-07T23:19:01.954Z,39.75
2022-09-07T23:21:29.578Z,45.28
2022-09-07T23:23:58.963Z,51.28
2022-09-07T23:26:28.951Z,50.22
2022-09-07T23:29:01.369Z,44.33
2022-09-07T23:31:31.005Z,37.78
2022-09-07T23:33:58.915Z,34.33
2022-09-07T23:36:26.802Z,28.00
2022-09-07T23:38:59.563Z,26.45
2022-09-07T23:41:27.653Z,24.20
2022-09-07T23:43:55.141Z,23.08
2022-09-07T23:46:23.298Z,26.67
2022-09-07T23:48:50.821Z,25.30
2022-09-07T23:51:23.414Z,33.65
2022-09-07T23:53:52.818Z,35.65
2022-09-07T23:56:20.739Z,32.65
2022-09-07T23:58:48.073Z,29.67
